Time;durP1;ratioP1;P1;durP2;ratioP2;P2;SDS_P1;SDS_P2;PMS_P1;PMS_P2;Temp;Humidity;BMP_temperature;BMP_pressure;BME280_temperature;BME280_humidity;BME280_pressure;Samples;Min_cycle;Max_cycle;Signal;HPM_P1;HPM_P2
2024/03/12 00:01:26;;;;;;;20.85;8.55;;;7.90;99.90;;;;;;5091206;28;20119;-79
2024/03/12 00:03:54;;;;;;;14.77;7.68;;;7.90;99.90;;;;;;5086147;28;20050;-79
2024/03/12 00:06:21;;;;;;;14.30;8.38;;;7.90;99.90;;;;;;5086423;28;20522;-79
2024/03/12 00:08:48;;;;;;;21.20;8.27;;;7.90;99.90;;;;;;5088441;28;20036;-79
2024/03/12 00:11:14;;;;;;;12.77;7.30;;;7.90;99.90;;;;;;5072452;28;20127;-79
2024/03/12 00:13:40;;;;;;;17.20;7.75;;;7.90;99.90;;;;;;5089400;28;20067;-78
2024/03/12 00:16:06;;;;;;;18.35;8.15;;;7.90;99.90;;;;;;5089843;28;20032;-79
2024/03/12 00:18:32;;;;;;;12.00;6.47;;;7.90;99.90;;;;;;5087995;28;20043;-78
2024/03/12 00:21:01;;;;;;;16.13;7.43;;;7.90;99.90;;;;;;5094949;28;20044;-79
2024/03/12 00:23:28;;;;;;;11.18;7.20;;;7.90;99.90;;;;;;5085811;28;20345;-79
2024/03/12 00:25:56;;;;;;;15.32;8.52;;;7.90;99.90;;;;;;5101142;28;20055;-79
2024/03/12 00:28:22;;;;;;;13.80;7.40;;;7.90;99.90;;;;;;5085994;28;20051;-79
2024/03/12 00:30:49;;;;;;;14.90;7.53;;;7.90;99.90;;;;;;5088330;28;20044;-79
2024/03/12 00:33:15;;;;;;;15.85;7.88;;;7.90;99.90;;;;;;5086577;28;20076;-79
2024/03/12 00:35:59;;;;;;;16.10;8.90;;;7.90;99.90;;;;;;5086595;28;20066;-79
2024/03/12 00:38:28;;;;;;;14.98;7.95;;;7.90;99.90;;;;;;5089859;28;20067;-79
2024/03/12 00:40:55;;;;;;;16.35;6.90;;;7.90;99.90;;;;;;5087901;28;20480;-79
2024/03/12 00:43:21;;;;;;;14.38;7.25;;;7.90;99.90;;;;;;5090167;28;20036;-79
2024/03/12 00:45:48;;;;;;;16.77;8.63;;;7.90;99.90;;;;;;5083078;28;20043;-79
2024/03/12 00:48:15;;;;;;;19.98;8.27;;;7.90;99.90;;;;;;5090677;28;20047;-80
2024/03/12 00:50:46;;;;;;;16.45;8.43;;;7.90;99.90;;;;;;5088297;28;20078;-79
2024/03/12 00:53:13;;;;;;;12.32;7.07;;;7.90;99.90;;;;;;5097429;28;20040;-79
2024/03/12 00:55:40;;;;;;;18.10;10.10;;;7.90;99.90;;;;;;5101924;28;20111;-79
2024/03/12 00:58:12;;;;;;;16.85;7.97;;;7.90;99.90;;;;;;5108050;28;20443;-80
2024/03/12 01:00:39;;;;;;;13.55;7.80;;;8.00;99.90;;;;;;5089668;28;20105;-80
2024/03/12 01:03:08;;;;;;;19.17;8.05;;;7.90;99.90;;;;;;5093690;28;20047;-80
2024/03/12 01:05:36;;;;;;;16.92;8.73;;;8.00;99.90;;;;;;5084297;28;20039;-80
2024/03/12 01:08:03;;;;;;;13.65;7.95;;;7.90;99.90;;;;;;5075415;28;20326;-80
2024/03/12 01:10:31;;;;;;;15.70;8.52;;;8.00;99.90;;;;;;5077647;28;20488;-78
2024/03/12 01:13:00;;;;;;;17.25;8.32;;;8.00;99.90;;;;;;5091547;28;20036;-80
2024/03/12 01:15:29;;;;;;;18.40;8.95;;;8.00;99.90;;;;;;5089388;28;20093;-80
2024/03/12 01:17:59;;;;;;;18.23;8.75;;;8.00;99.90;;;;;;5073882;28;20187;-80
2024/03/12 01:20:26;;;;;;;28.30;9.75;;;7.90;99.90;;;;;;5070659;28;20046;-80
2024/03/12 01:22:56;;;;;;;17.35;8.27;;;7.90;99.90;;;;;;5089941;28;20097;-80
2024/03/12 01:25:22;;;;;;;16.65;9.43;;;7.90;99.90;;;;;;5087111;28;20051;-79
2024/03/12 01:27:49;;;;;;;18.73;8.98;;;7.90;99.90;;;;;;5088517;28;20518;-80
2024/03/12 01:30:16;;;;;;;15.25;8.55;;;7.90;99.90;;;;;;5086693;28;20043;-80
2024/03/12 01:32:46;;;;;;;15.63;7.28;;;7.90;99.90;;;;;;5073031;28;20047;-80
2024/03/12 01:35:13;;;;;;;17.95;7.70;;;7.90;99.90;;;;;;5073284;28;20036;-80
2024/03/12 01:37:45;;;;;;;14.63;8.38;;;8.00;99.90;;;;;;5107217;28;20123;-80
2024/03/12 01:40:29;;;;;;;14.63;8.20;;;7.90;99.90;;;;;;5087710;28;20547;-80
2024/03/12 01:43:01;;;;;;;14.95;8.25;;;7.90;99.90;;;;;;5071607;28;20040;-80
2024/03/12 01:45:27;;;;;;;13.95;7.38;;;7.90;99.90;;;;;;5086331;28;20040;-80
2024/03/12 01:47:58;;;;;;;14.07;7.35;;;7.90;99.90;;;;;;5085227;28;20115;-80
2024/03/12 01:50:26;;;;;;;21.33;8.38;;;7.90;99.90;;;;;;5087170;28;20381;-80
2024/03/12 01:53:05;;;;;;;15.52;8.00;;;7.90;99.90;;;;;;5089144;28;20075;-80
2024/03/12 01:55:34;;;;;;;17.52;9.45;;;7.90;99.90;;;;;;5085625;28;20047;-80
2024/03/12 01:58:00;;;;;;;15.85;8.27;;;7.90;99.90;;;;;;5089596;28;20341;-80
2024/03/12 02:00:29;;;;;;;18.10;7.95;;;7.90;99.90;;;;;;5090529;28;20048;-80
2024/03/12 02:02:54;;;;;;;13.27;7.75;;;7.90;99.90;;;;;;5102698;28;20186;-79
2024/03/12 02:05:22;;;;;;;17.80;7.97;;;7.90;99.90;;;;;;5086733;28;20315;-80
2024/03/12 02:07:50;;;;;;;12.35;6.95;;;7.90;99.90;;;;;;5062307;28;20090;-80
2024/03/12 02:10:18;;;;;;;12.15;7.05;;;7.90;99.90;;;;;;5088077;28;20055;-80
2024/03/12 02:12:45;;;;;;;14.40;8.18;;;7.90;99.90;;;;;;5084798;28;20055;-80
2024/03/12 02:15:12;;;;;;;11.38;6.97;;;7.90;99.90;;;;;;5089246;28;20051;-79
2024/03/12 02:17:39;;;;;;;15.30;7.78;;;7.90;99.90;;;;;;5085765;28;20051;-79
2024/03/12 02:20:09;;;;;;;16.35;8.25;;;7.90;99.90;;;;;;5090015;28;20186;-79
2024/03/12 02:22:36;;;;;;;20.38;7.80;;;7.90;99.90;;;;;;5088525;28;20040;-79
2024/03/12 02:25:05;;;;;;;14.82;7.82;;;7.90;99.90;;;;;;5087816;28;20059;-80
2024/03/12 02:27:31;;;;;;;13.63;8.00;;;7.90;99.90;;;;;;5101715;28;20043;-79
2024/03/12 02:29:57;;;;;;;25.35;8.75;;;7.90;99.90;;;;;;5071726;28;20044;-81
2024/03/12 02:32:23;;;;;;;14.57;8.00;;;7.90;99.90;;;;;;5086050;28;20384;-80
2024/03/12 02:34:50;;;;;;;18.52;8.77;;;7.90;99.90;;;;;;5086527;28;20035;-78
2024/03/12 02:37:16;;;;;;;14.57;8.20;;;7.90;99.90;;;;;;5072406;28;20396;-79
2024/03/12 02:39:42;;;;;;;12.75;7.10;;;7.90;99.90;;;;;;5085383;28;20097;-79
2024/03/12 02:42:08;;;;;;;16.30;8.88;;;7.90;99.90;;;;;;5086814;28;20036;-79
2024/03/12 02:44:37;;;;;;;15.73;8.43;;;7.90;99.90;;;;;;5103314;28;20040;-79
2024/03/12 02:47:06;;;;;;;18.33;8.13;;;7.90;99.90;;;;;;5088168;28;20031;-79
2024/03/12 02:49:31;;;;;;;13.05;7.93;;;7.90;99.90;;;;;;5084011;28;20036;-79
2024/03/12 02:51:57;;;;;;;13.38;7.63;;;7.90;99.90;;;;;;5071780;28;20483;-79
2024/03/12 02:54:27;;;;;;;17.65;7.55;;;7.90;99.90;;;;;;5085279;28;20543;-79
2024/03/12 02:56:56;;;;;;;16.25;8.57;;;7.80;99.90;;;;;;5080391;28;20047;-80
2024/03/12 02:59:22;;;;;;;13.65;7.60;;;7.80;99.90;;;;;;5088330;28;20578;-80
2024/03/12 03:01:48;;;;;;;19.15;8.68;;;7.80;99.90;;;;;;5093171;28;20036;-80
2024/03/12 03:04:13;;;;;;;17.58;8.73;;;7.80;99.90;;;;;;5068928;28;20078;-79
2024/03/12 03:06:39;;;;;;;14.15;7.38;;;7.80;99.90;;;;;;5072039;28;20039;-80
2024/03/12 03:09:05;;;;;;;16.63;7.82;;;7.80;99.90;;;;;;5071404;28;20032;-80
2024/03/12 03:11:32;;;;;;;15.57;7.90;;;7.80;99.90;;;;;;5094257;28;20129;-79
2024/03/12 03:14:00;;;;;;;18.55;8.80;;;7.80;99.90;;;;;;5072316;28;20039;-80
2024/03/12 03:16:27;;;;;;;15.73;7.55;;;7.80;99.90;;;;;;5090618;28;20097;-79
2024/03/12 03:18:54;;;;;;;13.40;7.95;;;7.80;99.90;;;;;;5089490;28;20141;-81
2024/03/12 03:21:20;;;;;;;20.13;9.02;;;7.80;99.90;;;;;;5087563;28;20048;-81
2024/03/12 03:23:46;;;;;;;20.75;7.38;;;7.80;99.90;;;;;;5092732;28;20042;-80
2024/03/12 03:26:11;;;;;;;12.27;6.97;;;7.80;99.90;;;;;;5072244;28;20028;-79
2024/03/12 03:28:38;;;;;;;15.02;8.02;;;7.80;99.90;;;;;;5091574;28;20873;-79
2024/03/12 03:31:04;;;;;;;16.98;8.32;;;7.80;99.90;;;;;;5088984;28;20044;-80
2024/03/12 03:33:31;;;;;;;19.38;8.00;;;7.80;99.90;;;;;;5092417;28;20109;-79
2024/03/12 03:35:57;;;;;;;16.38;8.32;;;7.80;99.90;;;;;;5107775;28;20120;-80
2024/03/12 03:38:26;;;;;;;13.52;7.80;;;7.80;99.90;;;;;;5094035;28;20028;-79
2024/03/12 03:40:52;;;;;;;15.63;8.95;;;7.80;99.90;;;;;;5071758;28;20040;-79
2024/03/12 03:43:17;;;;;;;17.17;8.80;;;7.80;99.90;;;;;;5092878;28;20120;-79
2024/03/12 03:45:43;;;;;;;13.90;7.25;;;7.80;99.90;;;;;;5088023;28;20034;-79
2024/03/12 03:48:09;;;;;;;15.13;7.20;;;7.80;99.90;;;;;;5089011;28;20077;-79
2024/03/12 03:50:35;;;;;;;17.90;8.60;;;7.80;99.90;;;;;;5088584;28;20028;-79
2024/03/12 03:53:00;;;;;;;23.42;8.85;;;7.80;99.90;;;;;;5089441;28;20040;-79
2024/03/12 03:55:26;;;;;;;18.30;8.88;;;7.80;99.90;;;;;;5087064;28;20124;-80
2024/03/12 03:57:52;;;;;;;12.80;7.40;;;7.80;99.90;;;;;;5072234;28;20059;-79
2024/03/12 04:00:23;;;;;;;15.30;9.02;;;7.80;99.90;;;;;;5087399;28;20131;-80
2024/03/12 04:02:51;;;;;;;13.77;7.78;;;7.80;99.90;;;;;;5090440;28;20416;-80
2024/03/12 04:05:18;;;;;;;20.70;8.13;;;7.80;99.90;;;;;;5070884;28;20039;-80
2024/03/12 04:07:44;;;;;;;14.73;8.48;;;7.80;99.90;;;;;;5106686;28;20036;-80
2024/03/12 04:10:13;;;;;;;14.80;8.82;;;7.80;99.90;;;;;;5089486;28;20260;-80
2024/03/12 04:12:46;;;;;;;21.92;6.43;;;7.80;99.90;;;;;;5091435;28;20115;-81
2024/03/12 04:15:13;;;;;;;14.23;7.57;;;7.80;99.90;;;;;;5072994;28;20032;-81
2024/03/12 04:17:42;;;;;;;15.18;8.30;;;7.80;99.90;;;;;;5091930;28;20048;-80
2024/03/12 04:20:11;;;;;;;12.98;7.90;;;7.80;99.90;;;;;;5091224;28;20403;-80
2024/03/12 04:22:43;;;;;;;12.80;7.82;;;7.80;99.90;;;;;;5091102;28;20040;-80
2024/03/12 04:25:10;;;;;;;13.73;8.15;;;7.80;99.90;;;;;;5088485;28;20036;-80
2024/03/12 04:27:38;;;;;;;14.57;7.70;;;7.70;99.90;;;;;;5086503;28;20035;-80
2024/03/12 04:30:06;;;;;;;18.48;8.90;;;7.70;99.90;;;;;;5070249;28;20079;-79
2024/03/12 04:32:31;;;;;;;18.20;7.97;;;7.70;99.90;;;;;;5069791;28;20391;-79
2024/03/12 04:34:57;;;;;;;12.73;7.10;;;7.70;99.90;;;;;;5091255;28;20028;-79
2024/03/12 04:37:23;;;;;;;17.98;8.23;;;7.70;99.90;;;;;;5086651;28;20038;-80
2024/03/12 04:39:49;;;;;;;10.90;6.47;;;7.80;99.90;;;;;;5087998;28;20048;-79
2024/03/12 04:42:15;;;;;;;14.95;8.13;;;7.70;99.90;;;;;;5088185;28;20040;-80
2024/03/12 04:44:42;;;;;;;17.23;7.75;;;7.70;99.90;;;;;;5071523;28;20035;-81
2024/03/12 04:47:09;;;;;;;14.68;7.95;;;7.70;99.90;;;;;;5072205;28;20064;-79
2024/03/12 04:49:37;;;;;;;19.00;8.23;;;7.70;99.90;;;;;;5080123;28;20503;-79
2024/03/12 04:52:03;;;;;;;13.90;7.68;;;7.70;99.90;;;;;;5083923;28;20226;-79
2024/03/12 04:54:29;;;;;;;15.93;8.63;;;7.70;99.90;;;;;;5089898;28;20032;-79
2024/03/12 04:56:57;;;;;;;16.63;7.88;;;7.70;99.90;;;;;;5086611;28;20043;-80
2024/03/12 04:59:23;;;;;;;8.10;5.60;;;7.70;99.90;;;;;;5085972;28;20052;-79
2024/03/12 05:01:49;;;;;;;11.32;7.00;;;7.70;99.90;;;;;;5085999;28;20238;-79
2024/03/12 05:04:16;;;;;;;11.00;6.47;;;7.70;99.90;;;;;;5070881;28;20079;-79
2024/03/12 05:06:42;;;;;;;13.20;7.32;;;7.70;99.90;;;;;;5056113;28;20051;-80
2024/03/12 05:09:09;;;;;;;12.57;6.95;;;7.70;99.90;;;;;;5104507;28;20036;-79
2024/03/12 05:11:35;;;;;;;13.30;8.27;;;7.70;99.90;;;;;;5090274;28;20491;-80
2024/03/12 05:14:01;;;;;;;19.52;8.15;;;7.70;99.90;;;;;;5088076;28;20090;-80
2024/03/12 05:16:27;;;;;;;15.57;7.70;;;7.70;99.90;;;;;;5089683;28;20077;-80
2024/03/12 05:18:53;;;;;;;18.15;8.40;;;7.70;99.90;;;;;;5085509;28;20089;-80
2024/03/12 05:21:21;;;;;;;14.80;8.07;;;7.70;99.90;;;;;;5090136;28;20051;-80
2024/03/12 05:23:48;;;;;;;14.88;7.53;;;7.60;99.90;;;;;;5089052;28;20054;-80
2024/03/12 05:26:17;;;;;;;12.52;6.32;;;7.70;99.90;;;;;;5084984;28;20074;-80
2024/03/12 05:28:44;;;;;;;12.75;7.63;;;7.60;99.90;;;;;;5072310;28;20044;-80
2024/03/12 05:31:20;;;;;;;10.90;6.25;;;7.60;99.90;;;;;;5089717;28;20044;-80
2024/03/12 05:33:48;;;;;;;11.93;6.57;;;7.60;99.90;;;;;;5085003;28;20100;-81
2024/03/12 05:36:14;;;;;;;11.70;7.53;;;7.60;99.90;;;;;;5071462;28;20043;-80
2024/03/12 05:38:55;;;;;;;18.50;7.82;;;7.60;99.90;;;;;;5104826;28;20117;-80
2024/03/12 05:41:29;;;;;;;13.27;6.55;;;7.60;99.90;;;;;;5086598;28;20032;-80
2024/03/12 05:49:23;;;;;;;14.60;7.03;;;7.60;99.90;;;;;;5089519;28;20061;-80
2024/03/12 05:51:52;;;;;;;18.65;7.68;;;7.60;99.90;;;;;;5089507;28;20032;-79
2024/03/12 05:54:18;;;;;;;16.70;6.95;;;7.60;99.90;;;;;;5088844;28;20597;-80
2024/03/12 05:56:44;;;;;;;17.25;8.20;;;7.60;99.90;;;;;;5088482;28;20078;-79
2024/03/12 05:59:10;;;;;;;15.30;8.05;;;7.60;99.90;;;;;;5088592;28;20139;-80
2024/03/12 06:01:36;;;;;;;12.07;6.50;;;7.60;99.90;;;;;;5086085;28;20607;-78
2024/03/12 06:04:02;;;;;;;17.80;7.63;;;7.50;99.90;;;;;;5089526;28;20126;-79
2024/03/12 06:06:28;;;;;;;10.38;5.65;;;7.60;99.90;;;;;;5079382;28;20039;-80
2024/03/12 06:08:54;;;;;;;15.98;7.10;;;7.60;99.90;;;;;;5089344;28;20032;-80
2024/03/12 06:11:20;;;;;;;17.40;6.95;;;7.60;99.90;;;;;;5089017;28;20487;-80
2024/03/12 06:13:47;;;;;;;14.45;6.95;;;7.60;99.90;;;;;;5089627;28;20043;-80
2024/03/12 06:16:13;;;;;;;9.98;6.10;;;7.60;99.90;;;;;;5088847;28;20043;-79
2024/03/12 06:18:39;;;;;;;16.65;7.30;;;7.60;99.90;;;;;;5090843;28;20119;-80
2024/03/12 06:21:06;;;;;;;16.17;8.60;;;7.60;99.90;;;;;;5087567;28;20032;-80
2024/03/12 06:23:32;;;;;;;15.80;8.23;;;7.60;99.90;;;;;;5087616;28;20157;-80
2024/03/12 06:25:58;;;;;;;11.13;6.53;;;7.60;99.90;;;;;;5086173;28;20032;-80
2024/03/12 06:28:27;;;;;;;20.58;7.75;;;7.60;99.90;;;;;;5103349;28;20119;-79
2024/03/12 06:30:53;;;;;;;14.02;5.90;;;7.60;99.90;;;;;;5083726;28;20032;-80
2024/03/12 06:33:19;;;;;;;19.38;7.68;;;7.60;99.90;;;;;;5083492;28;20309;-80
2024/03/12 06:35:47;;;;;;;13.45;7.25;;;7.60;99.90;;;;;;5069945;28;20044;-79
2024/03/12 06:38:13;;;;;;;15.23;7.40;;;7.70;99.90;;;;;;5087963;28;20496;-80
2024/03/12 06:40:39;;;;;;;17.70;7.93;;;7.70;99.90;;;;;;5084256;28;20092;-79
2024/03/12 06:43:05;;;;;;;18.80;8.85;;;7.70;99.90;;;;;;5089305;28;20502;-80
2024/03/12 06:45:31;;;;;;;14.07;7.45;;;7.70;99.90;;;;;;5094326;28;20150;-80
2024/03/12 06:47:59;;;;;;;15.43;7.70;;;7.70;99.90;;;;;;5075085;28;20088;-80
2024/03/12 06:50:26;;;;;;;12.18;6.53;;;7.70;99.90;;;;;;5074607;28;20060;-79
2024/03/12 06:52:55;;;;;;;18.00;8.30;;;7.80;99.90;;;;;;5089899;28;20389;-80
2024/03/12 06:55:24;;;;;;;17.67;7.50;;;7.70;99.90;;;;;;5075605;28;20043;-81
2024/03/12 06:58:02;;;;;;;17.73;9.05;;;7.80;99.90;;;;;;5090190;28;20056;-80
2024/03/12 07:00:37;;;;;;;13.48;7.97;;;7.80;99.90;;;;;;5084996;28;20479;-80
2024/03/12 07:03:07;;;;;;;10.50;7.07;;;7.80;99.90;;;;;;5107972;28;20055;-81
2024/03/12 07:05:36;;;;;;;20.95;8.25;;;7.80;99.90;;;;;;5104472;28;20086;-80
2024/03/12 07:08:05;;;;;;;22.00;8.93;;;7.80;99.90;;;;;;5104379;28;20048;-80
2024/03/12 07:10:41;;;;;;;22.77;8.15;;;7.80;99.90;;;;;;5094299;28;20036;-81
2024/03/12 07:13:07;;;;;;;13.82;7.30;;;7.80;99.90;;;;;;5091131;28;20119;-80
2024/03/12 07:15:35;;;;;;;22.77;8.20;;;7.90;99.90;;;;;;5089941;28;20406;-81
2024/03/12 07:18:03;;;;;;;12.98;6.70;;;7.90;99.90;;;;;;5093394;28;20043;-80
2024/03/12 07:20:29;;;;;;;13.98;7.65;;;7.80;99.90;;;;;;5090374;28;20352;-81
2024/03/12 07:22:58;;;;;;;21.42;9.55;;;7.90;99.90;;;;;;5090115;28;20079;-80
2024/03/12 07:25:30;;;;;;;14.10;8.40;;;7.90;99.90;;;;;;5071834;28;20101;-80
2024/03/12 07:27:58;;;;;;;21.45;9.50;;;7.90;99.90;;;;;;5087834;28;20485;-80
2024/03/12 07:30:24;;;;;;;18.85;7.40;;;7.80;99.90;;;;;;5087889;28;20040;-80
2024/03/12 07:32:52;;;;;;;13.27;6.40;;;7.90;99.90;;;;;;5090968;28;20042;-80
2024/03/12 07:35:17;;;;;;;19.48;7.38;;;7.90;99.90;;;;;;5071005;28;20078;-80
2024/03/12 07:37:43;;;;;;;17.23;6.90;;;7.90;99.90;;;;;;5088748;28;20028;-80
2024/03/12 07:40:11;;;;;;;16.15;7.63;;;7.90;99.90;;;;;;5090499;28;20035;-80
2024/03/12 07:42:41;;;;;;;19.95;7.63;;;7.90;99.90;;;;;;5092316;28;20101;-79
2024/03/12 07:45:09;;;;;;;14.73;7.22;;;7.90;99.90;;;;;;5093760;28;20043;-80
2024/03/12 07:47:35;;;;;;;20.58;8.15;;;7.90;99.90;;;;;;5093287;28;20068;-81
2024/03/12 07:50:02;;;;;;;16.38;7.82;;;7.90;99.90;;;;;;5096477;28;20135;-79
2024/03/12 07:52:29;;;;;;;21.08;8.13;;;7.90;99.90;;;;;;5096483;28;20028;-80
2024/03/12 07:54:56;;;;;;;14.02;8.27;;;7.90;99.90;;;;;;5093923;28;20036;-79
2024/03/12 07:57:22;;;;;;;18.38;8.07;;;7.90;99.90;;;;;;5096060;28;20040;-80
2024/03/12 07:59:48;;;;;;;13.73;7.15;;;8.00;99.90;;;;;;5096515;28;20138;-80
2024/03/12 08:02:19;;;;;;;15.15;6.32;;;8.00;99.90;;;;;;5099860;28;20102;-80
2024/03/12 08:04:45;;;;;;;12.52;7.18;;;8.00;99.90;;;;;;5081250;28;20483;-80
2024/03/12 08:07:11;;;;;;;16.92;7.25;;;8.00;99.90;;;;;;5095225;28;20047;-80
2024/03/12 08:09:38;;;;;;;11.70;7.30;;;8.00;99.90;;;;;;5097669;28;20081;-80
2024/03/12 08:12:04;;;;;;;9.43;5.82;;;8.00;99.90;;;;;;5079949;28;20100;-80
2024/03/12 08:14:31;;;;;;;14.32;5.90;;;8.00;99.90;;;;;;5099952;28;20040;-80
2024/03/12 08:17:00;;;;;;;8.98;5.47;;;8.10;99.90;;;;;;5098409;28;20052;-79
2024/03/12 08:19:25;;;;;;;12.23;5.30;;;8.10;99.90;;;;;;5101355;28;20066;-81
2024/03/12 08:21:52;;;;;;;16.23;4.80;;;8.00;99.90;;;;;;5099730;28;20048;-81
2024/03/12 08:24:18;;;;;;;12.07;5.38;;;8.10;99.90;;;;;;5101691;28;20040;-80
2024/03/12 08:26:44;;;;;;;10.52;5.95;;;8.10;99.90;;;;;;5098792;28;20462;-80
2024/03/12 08:29:11;;;;;;;8.95;4.35;;;8.10;99.90;;;;;;5101917;28;20352;-81
2024/03/12 08:31:40;;;;;;;7.90;4.25;;;8.10;99.90;;;;;;5099563;28;20040;-80
2024/03/12 08:34:06;;;;;;;11.20;4.82;;;8.10;99.90;;;;;;5119802;28;20229;-81
2024/03/12 08:36:33;;;;;;;8.25;4.50;;;8.10;99.90;;;;;;5105445;28;20058;-81
2024/03/12 08:38:59;;;;;;;8.18;4.85;;;8.10;99.90;;;;;;5105828;28;20059;-81
2024/03/12 08:41:25;;;;;;;9.48;4.75;;;8.10;99.90;;;;;;5102232;28;20040;-79
2024/03/12 08:43:51;;;;;;;6.50;4.45;;;8.10;99.90;;;;;;5102777;28;20051;-80
2024/03/12 08:46:18;;;;;;;7.28;3.50;;;8.10;99.90;;;;;;5106925;28;20039;-80
2024/03/12 08:48:44;;;;;;;10.40;4.40;;;8.10;99.90;;;;;;5104050;28;20072;-80
2024/03/12 08:51:15;;;;;;;12.18;4.72;;;8.00;99.90;;;;;;5094678;28;20064;-79
2024/03/12 08:53:41;;;;;;;9.00;3.58;;;8.00;99.90;;;;;;5103701;28;20032;-81
2024/03/12 08:56:07;;;;;;;6.63;3.33;;;8.10;99.90;;;;;;5100314;28;20063;-80
2024/03/12 08:58:32;;;;;;;7.15;4.43;;;8.10;99.90;;;;;;5102381;28;20055;-80
2024/03/12 09:00:58;;;;;;;5.65;2.78;;;8.10;99.90;;;;;;5105267;28;20071;-81
2024/03/12 09:03:24;;;;;;;7.03;3.55;;;8.10;99.90;;;;;;5103871;28;20041;-80
2024/03/12 09:05:50;;;;;;;5.57;3.03;;;8.20;99.90;;;;;;5087991;28;20528;-80
2024/03/12 09:08:17;;;;;;;6.45;3.15;;;8.20;99.90;;;;;;5121085;28;20104;-81
2024/03/12 09:10:49;;;;;;;6.22;3.60;;;8.20;99.90;;;;;;5084625;28;20040;-80
2024/03/12 09:13:21;;;;;;;5.07;2.88;;;8.20;99.90;;;;;;5105166;28;20032;-80
2024/03/12 09:15:51;;;;;;;5.53;2.55;;;8.20;99.90;;;;;;5090074;28;20036;-80
2024/03/12 09:18:20;;;;;;;5.05;2.65;;;8.30;99.90;;;;;;5103962;28;20047;-80
2024/03/12 09:20:47;;;;;;;4.82;2.35;;;8.30;99.90;;;;;;5105119;28;20107;-81
2024/03/12 09:23:13;;;;;;;3.75;1.40;;;8.30;99.90;;;;;;5103888;28;20047;-80
2024/03/12 09:25:42;;;;;;;2.85;1.60;;;8.30;99.90;;;;;;5105759;28;20488;-80
2024/03/12 09:28:09;;;;;;;4.00;2.13;;;8.20;99.90;;;;;;5086739;28;20588;-80
2024/03/12 09:30:34;;;;;;;5.68;2.58;;;8.20;99.90;;;;;;5087767;28;20036;-80
2024/03/12 09:33:00;;;;;;;3.60;1.77;;;8.20;99.90;;;;;;5088494;28;20039;-80
2024/03/12 09:35:27;;;;;;;2.60;1.80;;;8.30;99.90;;;;;;5085070;28;20303;-80
2024/03/12 09:37:53;;;;;;;3.95;2.30;;;8.30;99.90;;;;;;5104338;28;20036;-79
2024/03/12 09:40:19;;;;;;;4.40;2.33;;;8.30;99.90;;;;;;5119837;28;20172;-80
2024/03/12 09:42:47;;;;;;;6.97;2.30;;;8.40;99.90;;;;;;5102604;28;20032;-80
2024/03/12 09:45:13;;;;;;;4.50;1.63;;;8.40;99.90;;;;;;5101556;28;20115;-80
2024/03/12 09:47:42;;;;;;;5.28;2.70;;;8.50;99.90;;;;;;5086365;28;20099;-80
2024/03/12 09:50:16;;;;;;;6.07;1.73;;;8.50;99.90;;;;;;5086790;28;20155;-80
2024/03/12 09:52:46;;;;;;;4.43;1.85;;;8.50;99.90;;;;;;5121618;28;20099;-80
2024/03/12 09:55:14;;;;;;;4.30;2.22;;;8.60;99.90;;;;;;5096687;28;20047;-80
2024/03/12 09:57:47;;;;;;;5.93;2.90;;;8.60;99.90;;;;;;5102641;28;20118;-80
2024/03/12 10:00:18;;;;;;;3.15;1.90;;;8.60;99.90;;;;;;5102804;28;20052;-80
2024/03/12 10:02:49;;;;;;;6.68;2.35;;;8.70;99.90;;;;;;5086254;28;20074;-82
2024/03/12 10:05:16;;;;;;;7.47;3.03;;;8.70;99.90;;;;;;5102702;28;20047;-81
2024/03/12 10:08:06;;;;;;;3.72;1.77;;;8.70;99.90;;;;;;5086860;28;20040;-80
2024/03/12 10:10:39;;;;;;;3.80;2.25;;;8.70;99.90;;;;;;5085191;28;20069;-77
2024/03/12 10:13:08;;;;;;;5.28;2.25;;;8.80;99.90;;;;;;5111207;28;20044;-81
2024/03/12 10:15:36;;;;;;;6.50;2.03;;;8.80;99.90;;;;;;5094722;28;20032;-81
2024/03/12 10:18:06;;;;;;;5.35;2.42;;;8.70;99.90;;;;;;5097872;28;20075;-80
2024/03/12 10:20:44;;;;;;;5.03;2.35;;;8.70;99.90;;;;;;5079900;28;20444;-81
2024/03/12 10:23:10;;;;;;;5.10;2.47;;;8.60;99.90;;;;;;5099422;28;20071;-80
2024/03/12 10:25:39;;;;;;;6.53;3.03;;;8.60;99.90;;;;;;5075169;28;20104;-80
2024/03/12 10:28:07;;;;;;;8.35;3.72;;;8.50;99.90;;;;;;5097771;28;20032;-81
2024/03/12 10:30:35;;;;;;;8.00;3.30;;;8.50;99.90;;;;;;5076651;28;20036;-81
2024/03/12 10:33:20;;;;;;;5.60;2.90;;;8.50;99.90;;;;;;5098042;28;20032;-83
2024/03/12 10:35:46;;;;;;;6.50;3.70;;;8.40;99.90;;;;;;5102950;28;20043;-80
2024/03/12 10:38:14;;;;;;;5.75;2.40;;;8.40;99.90;;;;;;5114031;28;20039;-81
2024/03/12 10:40:41;;;;;;;11.15;3.67;;;8.40;99.90;;;;;;5097000;28;20036;-81
2024/03/12 10:43:08;;;;;;;10.13;3.15;;;8.40;99.90;;;;;;5099240;28;20029;-79
2024/03/12 10:45:34;;;;;;;6.72;3.30;;;8.40;99.90;;;;;;5075315;28;20035;-81
2024/03/12 10:48:02;;;;;;;4.93;3.17;;;8.40;99.90;;;;;;5098947;28;20036;-81
2024/03/12 10:50:27;;;;;;;9.20;4.03;;;8.40;99.90;;;;;;5096956;28;20396;-81
2024/03/12 10:52:54;;;;;;;8.23;4.40;;;8.40;99.90;;;;;;5084232;28;20119;-81
2024/03/12 10:55:21;;;;;;;9.10;4.20;;;8.40;99.90;;;;;;5083059;28;20032;-81
2024/03/12 10:57:49;;;;;;;5.75;3.00;;;8.40;99.90;;;;;;5081377;28;20127;-80
2024/03/12 11:00:20;;;;;;;11.82;4.20;;;8.40;99.90;;;;;;5096971;28;20074;-80
2024/03/12 11:02:49;;;;;;;7.85;3.20;;;8.40;99.90;;;;;;5101215;28;20039;-80
2024/03/12 11:05:18;;;;;;;7.05;4.13;;;8.40;99.90;;;;;;5098796;28;20131;-80
2024/03/12 11:07:47;;;;;;;6.75;3.17;;;8.40;99.90;;;;;;5085459;28;20048;-80
2024/03/12 11:10:13;;;;;;;11.20;3.75;;;8.30;99.90;;;;;;5099875;28;20070;-80
2024/03/12 11:12:39;;;;;;;7.68;3.25;;;8.30;99.90;;;;;;5083180;28;20108;-80
2024/03/12 11:15:09;;;;;;;8.63;4.43;;;8.30;99.90;;;;;;5100801;28;20472;-80
2024/03/12 11:17:37;;;;;;;8.20;3.95;;;8.30;99.90;;;;;;5116486;28;20071;-80
2024/03/12 11:20:07;;;;;;;11.73;4.85;;;8.40;99.90;;;;;;5087054;28;20040;-80
2024/03/12 11:22:36;;;;;;;11.85;4.35;;;8.30;99.90;;;;;;5103096;28;20039;-81
2024/03/12 11:25:08;;;;;;;9.93;4.22;;;8.40;99.90;;;;;;5103417;28;20054;-79
2024/03/12 11:27:37;;;;;;;8.20;3.55;;;8.40;99.90;;;;;;5085188;28;20036;-81
2024/03/12 11:30:18;;;;;;;11.32;4.10;;;8.40;99.90;;;;;;5096016;28;20055;-81
2024/03/12 11:32:49;;;;;;;7.45;3.75;;;8.30;99.90;;;;;;5114060;28;20561;-81
2024/03/12 11:35:21;;;;;;;5.68;3.28;;;8.30;99.90;;;;;;5098397;28;20491;-81
2024/03/12 11:38:07;;;;;;;10.15;3.95;;;8.30;99.90;;;;;;5117935;28;20055;-81
2024/03/12 11:40:36;;;;;;;12.32;4.70;;;8.30;99.90;;;;;;5101084;28;20048;-81
2024/03/12 11:43:04;;;;;;;8.93;3.80;;;8.30;99.90;;;;;;5079900;28;20438;-81
2024/03/12 11:45:41;;;;;;;7.22;3.63;;;8.30;99.90;;;;;;5113112;28;20093;-81
2024/03/12 11:48:10;;;;;;;14.40;4.40;;;8.30;99.90;;;;;;5077415;28;20038;-81
2024/03/12 11:50:42;;;;;;;7.50;3.05;;;8.30;99.90;;;;;;5081426;28;20052;-81
2024/03/12 11:53:19;;;;;;;7.53;2.95;;;8.30;99.90;;;;;;5093719;28;20040;-80
2024/03/12 11:56:05;;;;;;;10.30;3.28;;;8.30;99.90;;;;;;5098374;28;20044;-80
2024/03/12 11:58:38;;;;;;;15.43;3.60;;;8.40;99.90;;;;;;5077093;28;20051;-81
2024/03/12 12:01:06;;;;;;;8.52;3.13;;;8.40;99.90;;;;;;5099473;28;20067;-80
2024/03/12 12:03:35;;;;;;;5.50;2.95;;;8.40;99.90;;;;;;5081505;28;20099;-80
2024/03/12 12:06:01;;;;;;;9.38;3.85;;;8.40;99.90;;;;;;5096747;28;20439;-80
2024/03/12 12:08:27;;;;;;;13.07;3.25;;;8.50;99.90;;;;;;5079018;28;20040;-80
2024/03/12 12:11:01;;;;;;;7.13;3.45;;;8.40;99.90;;;;;;5099417;28;20032;-80
2024/03/12 12:13:27;;;;;;;5.80;2.78;;;8.50;99.90;;;;;;5097381;28;20042;-80
2024/03/12 12:16:04;;;;;;;8.88;3.65;;;8.50;99.90;;;;;;5113327;28;20036;-80
2024/03/12 12:18:32;;;;;;;12.98;3.95;;;8.50;99.90;;;;;;5099867;28;20036;-80
2024/03/12 12:21:02;;;;;;;7.50;3.28;;;8.60;99.90;;;;;;5099096;28;20043;-80
2024/03/12 12:23:29;;;;;;;8.68;4.25;;;8.60;99.90;;;;;;5096064;28;20047;-79
2024/03/12 12:25:57;;;;;;;7.95;4.10;;;8.70;99.90;;;;;;5095468;28;20050;-80
2024/03/12 12:28:26;;;;;;;7.72;3.47;;;8.80;99.90;;;;;;5094782;28;20033;-79
2024/03/12 12:31:00;;;;;;;6.70;2.35;;;8.90;99.90;;;;;;5094807;28;20130;-80
2024/03/12 12:33:28;;;;;;;6.72;3.55;;;8.90;99.90;;;;;;5097618;28;20036;-79
2024/03/12 12:36:00;;;;;;;12.32;3.85;;;8.90;99.90;;;;;;5077377;28;20047;-80
2024/03/12 12:38:27;;;;;;;12.10;3.90;;;9.00;99.90;;;;;;5094538;28;20047;-80
2024/03/12 12:40:55;;;;;;;7.00;3.20;;;9.00;99.90;;;;;;5091999;28;20039;-81
2024/03/12 12:43:21;;;;;;;7.43;3.13;;;9.00;99.90;;;;;;5095057;28;20119;-80
2024/03/12 12:45:49;;;;;;;6.82;2.60;;;9.00;99.90;;;;;;5081495;28;20044;-80
2024/03/12 12:48:18;;;;;;;11.45;4.60;;;9.00;99.90;;;;;;5093340;28;20097;-81
2024/03/12 12:50:54;;;;;;;7.68;2.80;;;9.00;99.90;;;;;;5076514;28;20081;-81
2024/03/12 12:53:21;;;;;;;6.22;3.40;;;9.00;99.90;;;;;;5092780;28;20531;-80
2024/03/12 12:55:56;;;;;;;13.25;3.40;;;9.00;99.90;;;;;;5107363;28;20066;-81
2024/03/12 12:58:24;;;;;;;7.32;3.47;;;9.00;99.90;;;;;;5074730;28;20118;-81
2024/03/12 13:01:10;;;;;;;9.63;3.83;;;8.90;99.90;;;;;;5069733;28;20050;-80